createdAt,value
2018-06-23T00:00:18.525Z,11.74
2018-06-23T00:01:18.629Z,11.70
2018-06-23T00:02:18.005Z,11.74
2018-06-23T00:03:18.378Z,11.80
2018-06-23T00:04:17.720Z,11.78
2018-06-23T00:05:18.094Z,11.85
2018-06-23T00:06:18.443Z,11.85
2018-06-23T00:07:17.782Z,11.80
2018-06-23T00:08:18.116Z,11.82
2018-06-23T00:09:18.432Z,11.81
2018-06-23T00:10:17.802Z,11.84
2018-06-23T00:11:17.901Z,11.85
2018-06-23T00:12:18.262Z,11.82
2018-06-23T00:13:18.591Z,11.78
2018-06-23T00:14:17.964Z,11.80
2018-06-23T00:15:18.338Z,11.78
2018-06-23T00:16:18.663Z,11.75
2018-06-23T00:17:18.017Z,11.78
2018-06-23T00:18:18.374Z,11.81
2018-06-23T00:19:17.697Z,11.82
2018-06-23T00:20:18.078Z,11.78
2018-06-23T00:21:18.174Z,11.77
2018-06-23T00:22:18.527Z,11.74
2018-06-23T00:23:17.862Z,11.72
2018-06-23T00:24:18.208Z,11.74
2018-06-23T00:25:18.526Z,11.67
2018-06-23T00:26:17.811Z,11.65
2018-06-23T00:27:18.081Z,11.64
2018-06-23T00:28:18.333Z,11.55
2018-06-23T00:29:18.863Z,11.53
2018-06-23T00:30:18.137Z,11.46
2018-06-23T00:31:18.180Z,11.42
2018-06-23T00:32:18.437Z,11.43
2018-06-23T00:33:17.698Z,11.43
2018-06-23T00:34:17.963Z,11.43
2018-06-23T00:35:18.217Z,11.36
2018-06-23T00:36:18.477Z,11.31
2018-06-23T00:37:17.739Z,11.31
2018-06-23T00:38:18.015Z,11.31
2018-06-23T00:39:18.284Z,11.27
2018-06-23T00:40:18.554Z,11.22
2018-06-23T00:41:18.591Z,11.26
2018-06-23T00:42:17.854Z,11.17
2018-06-23T00:43:18.107Z,11.12
2018-06-23T00:44:18.374Z,11.09
2018-06-23T00:45:17.638Z,11.10
2018-06-23T00:46:17.902Z,11.06
2018-06-23T00:47:18.156Z,11.05
2018-06-23T00:48:18.413Z,11.12
2018-06-23T00:49:17.676Z,11.05
2018-06-23T00:50:17.964Z,11.02
2018-06-23T00:51:17.989Z,11.00
2018-06-23T00:52:18.263Z,10.98
2018-06-23T00:53:18.524Z,10.95
2018-06-23T00:54:17.787Z,10.99
2018-06-23T00:55:18.053Z,10.95
2018-06-23T00:56:18.315Z,10.95
2018-06-23T00:57:18.574Z,10.92
2018-06-23T00:58:17.833Z,10.89
2018-06-23T00:59:18.097Z,10.89
2018-06-23T01:00:18.366Z,10.79
2018-06-23T01:01:18.528Z,10.79
2018-06-23T01:02:17.789Z,10.78
2018-06-23T01:03:18.043Z,10.77
2018-06-23T01:04:18.307Z,10.77
2018-06-23T01:05:18.567Z,10.75
2018-06-23T01:06:17.832Z,10.68
2018-06-23T01:07:18.095Z,10.65
2018-06-23T01:08:18.351Z,10.58
2018-06-23T01:09:18.616Z,10.57
2018-06-23T01:10:17.889Z,10.51
2018-06-23T01:11:17.942Z,10.48
2018-06-23T01:12:18.215Z,10.43
2018-06-23T01:13:18.483Z,10.40
2018-06-23T01:14:17.748Z,10.44
2018-06-23T01:15:18.008Z,10.52
2018-06-23T01:16:18.272Z,10.60
2018-06-23T01:17:18.547Z,10.61
2018-06-23T01:18:17.800Z,10.71
2018-06-23T01:19:18.064Z,10.63
2018-06-23T01:20:18.339Z,10.61
2018-06-23T01:21:18.392Z,10.60
2018-06-23T01:22:17.669Z,10.51
2018-06-23T01:23:17.944Z,10.40
2018-06-23T01:24:18.211Z,10.37
2018-06-23T01:25:18.471Z,10.27
2018-06-23T01:26:17.729Z,10.39
2018-06-23T01:27:17.986Z,10.33
2018-06-23T01:28:18.256Z,10.29
2018-06-23T01:29:17.817Z,10.16
2018-06-23T01:30:18.080Z,10.31
2018-06-23T01:31:18.139Z,10.27
2018-06-23T01:32:18.399Z,10.24
2018-06-23T01:33:17.662Z,10.19
2018-06-23T01:34:17.918Z,10.16
2018-06-23T01:35:18.192Z,10.09
2018-06-23T01:36:18.457Z,10.09
2018-06-23T01:37:17.735Z,10.05
2018-06-23T01:38:17.999Z,10.03
2018-06-23T01:39:18.256Z,10.16
2018-06-23T01:40:18.538Z,10.24
2018-06-23T01:41:18.582Z,10.23
2018-06-23T01:42:17.851Z,10.23
2018-06-23T01:43:18.116Z,10.13
2018-06-23T01:44:18.386Z,10.09
2018-06-23T01:45:17.639Z,10.01
2018-06-23T01:46:17.905Z,9.96
2018-06-23T01:47:18.168Z,9.89
2018-06-23T01:48:18.435Z,9.86
2018-06-23T01:49:17.707Z,9.78
2018-06-23T01:50:17.976Z,9.74
2018-06-23T01:51:18.018Z,9.68
2018-06-23T01:52:18.277Z,9.61
2018-06-23T01:53:18.540Z,9.61
2018-06-23T01:54:17.800Z,9.59
2018-06-23T01:55:18.061Z,9.50
2018-06-23T01:56:18.329Z,9.47
2018-06-23T01:57:18.593Z,9.44
2018-06-23T01:58:17.857Z,9.43
2018-06-23T01:59:18.486Z,9.40
2018-06-23T02:00:17.765Z,9.40
2018-06-23T02:01:18.509Z,9.37
2018-06-23T02:02:17.776Z,9.33
2018-06-23T02:03:18.036Z,9.30
2018-06-23T02:04:18.298Z,9.29
2018-06-23T02:05:18.557Z,9.24
2018-06-23T02:06:17.828Z,9.17
2018-06-23T02:07:18.091Z,9.17
2018-06-23T02:08:18.364Z,9.10
2018-06-23T02:09:17.619Z,9.07
2018-06-23T02:10:17.894Z,9.09
2018-06-23T02:11:17.939Z,9.06
2018-06-23T02:12:18.194Z,9.02
2018-06-23T02:13:18.458Z,9.03
2018-06-23T02:14:17.901Z,9.03
2018-06-23T02:15:18.158Z,8.98
2018-06-23T02:16:18.433Z,8.95
2018-06-23T02:17:17.696Z,8.88
2018-06-23T02:18:17.956Z,8.88
2018-06-23T02:19:18.217Z,8.84
2018-06-23T02:20:18.491Z,8.79
2018-06-23T02:21:18.517Z,8.80
2018-06-23T02:22:17.777Z,8.75
2018-06-23T02:23:18.042Z,8.74
2018-06-23T02:24:18.314Z,8.69
2018-06-23T02:25:18.580Z,8.71
2018-06-23T02:26:17.849Z,8.67
2018-06-23T02:27:18.107Z,8.67
2018-06-23T02:28:18.365Z,8.62
2018-06-23T02:29:17.632Z,8.61
2018-06-23T02:30:17.906Z,8.59
2018-06-23T02:31:17.957Z,8.59
2018-06-23T02:32:18.219Z,8.51
2018-06-23T02:33:18.473Z,8.50
2018-06-23T02:34:17.733Z,8.44
2018-06-23T02:35:17.998Z,8.45
2018-06-23T02:36:18.265Z,8.44
2018-06-23T02:37:18.526Z,8.47
2018-06-23T02:38:17.788Z,8.50
2018-06-23T02:39:18.045Z,8.45
2018-06-23T02:40:18.327Z,8.44
2018-06-23T02:41:18.353Z,8.47
2018-06-23T02:42:18.612Z,8.48
2018-06-23T02:43:17.875Z,8.45
2018-06-23T02:44:18.137Z,8.57
2018-06-23T02:45:18.403Z,8.57
2018-06-23T02:46:17.678Z,8.68
2018-06-23T02:47:17.956Z,8.65
2018-06-23T02:48:18.222Z,8.71
2018-06-23T02:49:18.482Z,8.74
2018-06-23T02:50:18.172Z,8.75
2018-06-23T02:51:17.890Z,8.74
2018-06-23T02:52:18.152Z,8.79
2018-06-23T02:53:18.414Z,8.80
2018-06-23T02:54:17.664Z,8.80
2018-06-23T02:55:17.930Z,8.82
2018-06-23T02:56:18.407Z,8.86
2018-06-23T02:57:17.669Z,8.86
2018-06-23T02:58:17.936Z,8.95
2018-06-23T02:59:18.194Z,8.98
2018-06-23T03:00:18.466Z,8.98
2018-06-23T03:01:18.587Z,9.05
2018-06-23T03:02:17.854Z,9.06
2018-06-23T03:03:18.130Z,9.05
2018-06-23T03:04:18.394Z,9.05
2018-06-23T03:05:17.656Z,9.02
2018-06-23T03:06:17.915Z,9.05
2018-06-23T03:07:18.198Z,9.07
2018-06-23T03:08:18.472Z,9.09
2018-06-23T03:09:17.739Z,9.12
2018-06-23T03:10:18.005Z,9.06
2018-06-23T03:11:18.062Z,9.05
2018-06-23T03:12:18.322Z,9.05
2018-06-23T03:13:18.590Z,9.05
2018-06-23T03:14:17.862Z,9.10
2018-06-23T03:15:18.127Z,9.17
2018-06-23T03:16:18.384Z,9.20
2018-06-23T03:17:17.755Z,9.17
2018-06-23T03:18:18.027Z,9.17
2018-06-23T03:19:18.538Z,9.10
2018-06-23T03:20:17.813Z,9.07
2018-06-23T03:21:17.858Z,9.03
2018-06-23T03:22:18.122Z,8.99
2018-06-23T03:23:18.375Z,8.94
2018-06-23T03:24:17.633Z,8.94
2018-06-23T03:25:17.907Z,8.89
2018-06-23T03:26:18.177Z,8.89
2018-06-23T03:27:18.431Z,8.88
2018-06-23T03:28:17.695Z,8.85
2018-06-23T03:29:17.955Z,8.86
2018-06-23T03:30:18.219Z,8.84
2018-06-23T03:31:18.266Z,8.84
2018-06-23T03:32:18.529Z,8.79
2018-06-23T03:33:17.785Z,8.82
2018-06-23T03:34:18.043Z,8.76
2018-06-23T03:35:18.304Z,8.76
2018-06-23T03:36:18.563Z,8.74
2018-06-23T03:37:17.833Z,8.69
2018-06-23T03:38:18.090Z,8.69
2018-06-23T03:39:18.355Z,8.67
2018-06-23T03:40:18.618Z,8.67
2018-06-23T03:41:17.652Z,8.67
2018-06-23T03:42:17.922Z,8.64
2018-06-23T03:43:18.184Z,8.65
2018-06-23T03:44:18.442Z,8.59
2018-06-23T03:45:17.703Z,8.59
2018-06-23T03:46:17.958Z,8.51
2018-06-23T03:47:18.214Z,8.50
2018-06-23T03:48:18.479Z,8.50
2018-06-23T03:49:17.746Z,8.48
2018-06-23T03:50:18.009Z,8.47
2018-06-23T03:51:18.057Z,8.47
2018-06-23T03:52:18.327Z,8.50
2018-06-23T03:53:18.583Z,8.47
2018-06-23T03:54:17.853Z,8.45
2018-06-23T03:55:18.112Z,8.45
2018-06-23T03:56:18.378Z,8.47
2018-06-23T03:57:17.635Z,8.48
2018-06-23T03:58:17.895Z,8.50
2018-06-23T03:59:18.169Z,8.45
2018-06-23T04:00:18.433Z,8.45
2018-06-23T04:01:18.482Z,8.48
2018-06-23T04:02:17.745Z,8.50
2018-06-23T04:03:18.008Z,8.54
2018-06-23T04:04:18.271Z,8.52
2018-06-23T04:05:18.539Z,8.57
2018-06-23T04:06:17.792Z,8.67
2018-06-23T04:07:18.059Z,8.71
2018-06-23T04:08:18.319Z,8.79
2018-06-23T04:09:18.595Z,8.88
2018-06-23T04:10:17.870Z,8.98
2018-06-23T04:11:17.911Z,9.03
2018-06-23T04:12:18.174Z,9.07
2018-06-23T04:13:18.436Z,9.09
2018-06-23T04:14:17.706Z,9.22
2018-06-23T04:15:17.963Z,9.23
2018-06-23T04:16:18.226Z,9.27
2018-06-23T04:17:18.493Z,9.33
2018-06-23T04:18:17.752Z,9.37
2018-06-23T04:19:18.013Z,9.40
2018-06-23T04:20:18.275Z,9.55
2018-06-23T04:21:18.322Z,9.68
2018-06-23T04:22:18.591Z,9.74
2018-06-23T04:23:17.877Z,9.82
2018-06-23T04:24:18.134Z,9.84
2018-06-23T04:25:18.404Z,10.02
2018-06-23T04:26:17.680Z,10.06
2018-06-23T04:27:17.945Z,10.19
2018-06-23T04:28:18.327Z,10.29
2018-06-23T04:29:18.662Z,10.36
2018-06-23T04:30:18.046Z,10.43
2018-06-23T04:31:18.087Z,10.47
2018-06-23T04:32:18.362Z,10.63
2018-06-23T04:33:18.619Z,10.67
2018-06-23T04:34:17.886Z,10.78
2018-06-23T04:35:18.148Z,10.88
2018-06-23T04:36:18.405Z,10.84
2018-06-23T04:37:17.669Z,10.88
2018-06-23T04:38:17.927Z,10.89
2018-06-23T04:39:18.234Z,10.92
2018-06-23T04:40:18.500Z,10.98
2018-06-23T04:41:18.534Z,11.07
2018-06-23T04:42:17.794Z,11.00
2018-06-23T04:43:18.053Z,11.00
2018-06-23T04:44:18.315Z,11.06
2018-06-23T04:45:18.576Z,11.10
2018-06-23T04:46:17.833Z,10.91
2018-06-23T04:47:18.087Z,10.91
2018-06-23T04:48:18.352Z,10.91
2018-06-23T04:49:18.616Z,10.92
2018-06-23T04:50:17.882Z,10.79
2018-06-23T04:51:17.932Z,10.96
2018-06-23T04:52:18.201Z,10.94
2018-06-23T04:53:18.502Z,10.82
2018-06-23T04:54:17.755Z,10.92
2018-06-23T04:55:18.016Z,10.92
2018-06-23T04:56:18.276Z,10.98
2018-06-23T04:57:18.537Z,10.92
2018-06-23T04:58:18.073Z,11.00
2018-06-23T04:59:18.331Z,11.02
2018-06-23T05:00:18.652Z,10.92
2018-06-23T05:01:17.625Z,10.98
2018-06-23T05:02:17.896Z,11.07
2018-06-23T05:03:18.152Z,11.12
2018-06-23T05:04:18.416Z,11.02
2018-06-23T05:05:17.679Z,11.16
2018-06-23T05:06:17.945Z,11.12
2018-06-23T05:07:18.202Z,11.12
2018-06-23T05:08:18.454Z,11.09
2018-06-23T05:09:17.706Z,11.19
2018-06-23T05:10:17.989Z,11.17
2018-06-23T05:11:17.996Z,11.06
2018-06-23T05:12:18.297Z,11.06
2018-06-23T05:13:18.607Z,11.09
2018-06-23T05:14:17.876Z,11.10
2018-06-23T05:15:18.141Z,11.17
2018-06-23T05:16:18.408Z,11.19
2018-06-23T05:17:17.685Z,11.09
2018-06-23T05:18:17.955Z,11.07
2018-06-23T05:19:18.210Z,11.03
2018-06-23T05:20:18.536Z,11.05
2018-06-23T05:21:18.520Z,11.03
2018-06-23T05:22:17.779Z,11.02
2018-06-23T05:23:18.043Z,11.02
2018-06-23T05:24:18.302Z,11.03
2018-06-23T05:25:18.560Z,11.06
2018-06-23T05:26:17.825Z,11.20
2018-06-23T05:27:18.090Z,11.17
2018-06-23T05:28:18.360Z,11.16
2018-06-23T05:29:18.626Z,11.22
2018-06-23T05:30:17.897Z,11.26
2018-06-23T05:31:17.944Z,11.19
2018-06-23T05:32:18.206Z,11.16
2018-06-23T05:33:18.466Z,11.12
2018-06-23T05:34:17.720Z,11.15
2018-06-23T05:35:17.996Z,11.17
2018-06-23T05:36:18.262Z,11.15
2018-06-23T05:37:18.542Z,11.23
2018-06-23T05:38:17.800Z,11.23
2018-06-23T05:39:18.058Z,11.26
2018-06-23T05:40:18.338Z,11.23
2018-06-23T05:41:18.352Z,11.13
2018-06-23T05:42:17.615Z,11.15
2018-06-23T05:43:17.882Z,11.15
2018-06-23T05:44:18.146Z,11.17
2018-06-23T05:45:18.421Z,11.09
2018-06-23T05:46:17.679Z,11.10
2018-06-23T05:47:17.945Z,11.09
2018-06-23T05:48:18.213Z,11.13
2018-06-23T05:49:18.474Z,11.29
2018-06-23T05:50:17.735Z,11.36
2018-06-23T05:51:17.861Z,11.26
2018-06-23T05:52:18.183Z,11.34
2018-06-23T05:53:18.451Z,11.30
2018-06-23T05:54:17.709Z,11.33
2018-06-23T05:55:17.969Z,11.19
2018-06-23T05:56:18.227Z,11.15
2018-06-23T05:57:18.490Z,11.00
2018-06-23T05:58:18.034Z,10.88
2018-06-23T05:59:18.289Z,10.88
2018-06-23T06:00:18.571Z,10.88
2018-06-23T06:01:18.602Z,10.91
2018-06-23T06:02:17.874Z,10.96
2018-06-23T06:03:18.136Z,10.92
2018-06-23T06:04:18.406Z,10.82
2018-06-23T06:05:17.671Z,10.89
2018-06-23T06:06:17.935Z,10.94
2018-06-23T06:07:18.188Z,11.00
2018-06-23T06:08:18.440Z,11.03
2018-06-23T06:09:17.713Z,11.13
2018-06-23T06:10:17.997Z,11.23
2018-06-23T06:11:18.023Z,11.27
2018-06-23T06:12:18.287Z,11.34
2018-06-23T06:13:18.544Z,11.57
2018-06-23T06:14:17.831Z,11.57
2018-06-23T06:15:18.093Z,11.81
2018-06-23T06:16:18.360Z,11.93
2018-06-23T06:17:18.622Z,11.85
2018-06-23T06:18:17.889Z,11.86
2018-06-23T06:19:18.155Z,11.75
2018-06-23T06:20:18.428Z,11.81
2018-06-23T06:21:18.471Z,11.80
2018-06-23T06:22:17.736Z,11.81
2018-06-23T06:23:18.007Z,11.92
2018-06-23T06:24:18.268Z,12.05
2018-06-23T06:25:18.528Z,11.80
2018-06-23T06:26:17.793Z,11.78
2018-06-23T06:27:18.054Z,12.11
2018-06-23T06:28:18.322Z,12.19
2018-06-23T06:29:18.588Z,12.22
2018-06-23T06:30:17.854Z,12.30
2018-06-23T06:31:17.910Z,12.15
2018-06-23T06:32:18.167Z,12.12
2018-06-23T06:33:18.427Z,12.12
2018-06-23T06:34:17.795Z,11.99
2018-06-23T06:35:18.053Z,11.96
2018-06-23T06:36:18.311Z,11.86
2018-06-23T06:37:18.570Z,11.93
2018-06-23T06:38:17.832Z,11.92
2018-06-23T06:39:18.094Z,11.85
2018-06-23T06:40:18.370Z,11.96
2018-06-23T06:41:18.379Z,11.96
2018-06-23T06:42:17.643Z,11.96
2018-06-23T06:43:17.905Z,11.88
2018-06-23T06:44:18.171Z,12.05
2018-06-23T06:45:18.441Z,12.13
2018-06-23T06:46:17.701Z,12.29
2018-06-23T06:47:17.955Z,12.37
2018-06-23T06:48:18.227Z,12.44
2018-06-23T06:49:18.487Z,12.28
2018-06-23T06:50:17.745Z,12.44
2018-06-23T06:51:17.796Z,12.46
2018-06-23T06:52:18.055Z,12.60
2018-06-23T06:53:18.318Z,12.51
2018-06-23T06:54:18.579Z,12.78
2018-06-23T06:55:17.844Z,12.70
2018-06-23T06:56:18.103Z,12.95
2018-06-23T06:57:18.366Z,13.12
2018-06-23T06:58:17.625Z,13.11
2018-06-23T06:59:17.886Z,12.75
2018-06-23T07:00:18.171Z,12.57
2018-06-23T07:01:18.186Z,12.63
2018-06-23T07:02:18.455Z,12.51
2018-06-23T07:03:17.717Z,12.53
2018-06-23T07:04:17.974Z,12.63
2018-06-23T07:05:18.238Z,12.79
2018-06-23T07:06:18.498Z,12.95
2018-06-23T07:07:17.755Z,13.11
2018-06-23T07:08:18.038Z,13.19
2018-06-23T07:09:18.308Z,12.88
2018-06-23T07:10:18.577Z,12.75
2018-06-23T07:11:18.629Z,12.47
2018-06-23T07:12:17.885Z,12.54
2018-06-23T07:13:18.158Z,12.36
2018-06-23T07:14:18.424Z,12.39
2018-06-23T07:15:17.712Z,12.60
2018-06-23T07:16:17.969Z,12.81
2018-06-23T07:17:18.226Z,12.77
2018-06-23T07:18:18.513Z,12.87
2018-06-23T07:19:17.783Z,12.92
2018-06-23T07:20:18.051Z,13.06
2018-06-23T07:21:18.096Z,13.04
2018-06-23T07:22:18.359Z,13.05
2018-06-23T07:23:18.620Z,13.25
2018-06-23T07:24:17.881Z,13.14
2018-06-23T07:25:18.144Z,13.08
2018-06-23T07:26:18.407Z,12.99
2018-06-23T07:27:17.665Z,12.92
2018-06-23T07:28:17.928Z,13.32
2018-06-23T07:29:18.191Z,13.26
2018-06-23T07:30:18.467Z,13.33
2018-06-23T07:31:18.514Z,13.36
2018-06-23T07:32:17.773Z,13.32
2018-06-23T07:33:18.037Z,13.46
2018-06-23T07:34:18.396Z,13.76
2018-06-23T07:35:17.972Z,13.58
2018-06-23T07:36:17.881Z,13.32
2018-06-23T07:37:18.139Z,13.40
2018-06-23T07:38:18.402Z,13.23
2018-06-23T07:39:17.660Z,13.26
2018-06-23T07:40:17.937Z,13.19
2018-06-23T07:41:17.985Z,13.29
2018-06-23T07:42:18.249Z,13.76
2018-06-23T07:43:18.520Z,13.73
2018-06-23T07:44:18.060Z,13.32
2018-06-23T07:45:18.342Z,13.44
2018-06-23T07:46:18.609Z,13.73
2018-06-23T07:47:17.872Z,13.74
2018-06-23T07:48:18.130Z,13.82
2018-06-23T07:49:18.391Z,13.88
2018-06-23T07:50:17.653Z,13.78
2018-06-23T07:51:17.697Z,14.30
2018-06-23T07:52:17.964Z,14.30
2018-06-23T07:53:18.234Z,14.09
2018-06-23T07:54:18.502Z,14.47
2018-06-23T07:55:17.759Z,14.47
2018-06-23T07:56:18.082Z,14.36
2018-06-23T07:57:18.410Z,14.36
2018-06-23T07:58:17.668Z,14.04
2018-06-23T07:59:17.934Z,14.09
2018-06-23T08:00:18.212Z,14.01
2018-06-23T08:01:18.274Z,13.57
2018-06-23T08:02:18.527Z,13.25
2018-06-23T08:03:17.791Z,13.23
2018-06-23T08:04:18.049Z,12.91
2018-06-23T08:05:18.312Z,13.04
2018-06-23T08:06:18.568Z,13.22
2018-06-23T08:07:17.840Z,13.16
2018-06-23T08:08:18.107Z,13.27
2018-06-23T08:09:18.365Z,13.16
2018-06-23T08:10:18.625Z,13.22
2018-06-23T08:11:17.671Z,13.33
2018-06-23T08:12:17.934Z,13.54
2018-06-23T08:13:18.196Z,13.14
2018-06-23T08:14:18.450Z,13.22
2018-06-23T08:15:17.731Z,13.15
2018-06-23T08:16:17.985Z,13.23
2018-06-23T08:17:18.255Z,13.36
2018-06-23T08:18:18.564Z,13.55
2018-06-23T08:19:17.825Z,14.25
2018-06-23T08:20:18.087Z,14.13
2018-06-23T08:21:18.132Z,13.76
2018-06-23T08:22:18.382Z,14.19
2018-06-23T08:23:17.641Z,13.85
2018-06-23T08:24:17.905Z,13.68
2018-06-23T08:25:18.159Z,13.71
2018-06-23T08:26:18.475Z,13.81
2018-06-23T08:27:17.795Z,14.00
2018-06-23T08:28:18.052Z,14.55
2018-06-23T08:29:18.304Z,14.40
2018-06-23T08:30:18.573Z,14.35
2018-06-23T08:31:18.618Z,14.70
2018-06-23T08:32:17.882Z,15.21
2018-06-23T08:33:18.137Z,15.14
2018-06-23T08:34:18.401Z,13.98
2018-06-23T08:35:17.665Z,13.51
2018-06-23T08:36:17.929Z,13.77
2018-06-23T08:37:18.212Z,14.30
2018-06-23T08:38:18.465Z,14.57
2018-06-23T08:39:17.724Z,14.78
2018-06-23T08:40:17.995Z,15.12
2018-06-23T08:41:18.030Z,15.15
2018-06-23T08:42:18.286Z,14.44
2018-06-23T08:43:18.554Z,14.28
2018-06-23T08:44:17.824Z,14.16
2018-06-23T08:45:18.096Z,14.07
2018-06-23T08:46:18.356Z,13.98
2018-06-23T08:47:18.624Z,13.90
2018-06-23T08:48:17.943Z,14.12
2018-06-23T08:49:18.201Z,14.19
2018-06-23T08:50:18.479Z,14.05
2018-06-23T08:51:18.517Z,14.55
2018-06-23T08:52:17.774Z,15.04
2018-06-23T08:53:18.033Z,14.40
2018-06-23T08:54:18.292Z,14.76
2018-06-23T08:55:18.565Z,15.77
2018-06-23T08:56:17.831Z,14.98
2018-06-23T08:57:18.088Z,14.71
2018-06-23T08:58:18.361Z,15.25
2018-06-23T08:59:18.617Z,15.09
2018-06-23T09:00:17.888Z,14.43
2018-06-23T09:01:17.939Z,14.23
2018-06-23T09:02:18.202Z,14.52
2018-06-23T09:03:18.464Z,14.44
2018-06-23T09:04:17.733Z,14.52
2018-06-23T09:05:17.997Z,15.15
2018-06-23T09:06:18.302Z,15.91
2018-06-23T09:07:18.570Z,16.04
2018-06-23T09:08:17.831Z,16.25
2018-06-23T09:09:18.413Z,16.56
2018-06-23T09:10:17.691Z,16.93
2018-06-23T09:11:17.755Z,17.13
2018-06-23T09:12:18.018Z,16.94
2018-06-23T09:13:18.280Z,15.50
2018-06-23T09:14:18.551Z,15.14
2018-06-23T09:15:17.810Z,14.92
2018-06-23T09:16:18.080Z,15.15
2018-06-23T09:17:18.346Z,15.26
2018-06-23T09:18:18.603Z,15.88
2018-06-23T09:19:17.865Z,15.91
2018-06-23T09:20:18.140Z,15.26
2018-06-23T09:21:18.156Z,15.16
2018-06-23T09:22:18.409Z,15.26
2018-06-23T09:23:17.679Z,15.56
2018-06-23T09:24:17.944Z,15.88
2018-06-23T09:25:18.206Z,16.55
2018-06-23T09:26:18.468Z,16.88
2018-06-23T09:27:17.726Z,16.78
2018-06-23T09:28:17.986Z,16.38
2018-06-23T09:29:18.252Z,16.50
2018-06-23T09:30:18.513Z,16.70
2018-06-23T09:31:18.553Z,16.43
2018-06-23T09:32:17.824Z,16.62
2018-06-23T09:33:18.086Z,16.78
2018-06-23T09:34:18.347Z,16.38
2018-06-23T09:35:18.619Z,16.49
2018-06-23T09:36:17.881Z,16.18
2018-06-23T09:37:18.141Z,16.11
2018-06-23T09:38:18.404Z,16.88
2018-06-23T09:39:17.666Z,16.70
2018-06-23T09:40:17.933Z,16.00
2018-06-23T09:41:17.977Z,16.43
2018-06-23T09:42:18.239Z,16.64
2018-06-23T09:43:18.496Z,16.40
2018-06-23T09:44:17.761Z,16.28
2018-06-23T09:45:18.028Z,16.74
2018-06-23T09:46:18.286Z,16.70
2018-06-23T09:47:18.547Z,16.67
2018-06-23T09:48:17.811Z,16.78
2018-06-23T09:49:18.089Z,16.19
2018-06-23T09:50:18.350Z,15.39
2018-06-23T09:51:18.381Z,15.60
2018-06-23T09:52:17.644Z,15.25
2018-06-23T09:53:17.897Z,14.91
2018-06-23T09:54:18.150Z,14.92
2018-06-23T09:55:18.416Z,15.81
2018-06-23T09:56:17.676Z,16.05
2018-06-23T09:57:17.940Z,16.19
2018-06-23T09:58:18.199Z,15.98
2018-06-23T09:59:18.470Z,16.11
2018-06-23T10:00:17.755Z,16.09
2018-06-23T10:01:17.800Z,16.27
2018-06-23T10:02:18.080Z,16.42
2018-06-23T10:03:18.425Z,16.78
2018-06-23T10:04:17.933Z,16.12
2018-06-23T10:05:18.203Z,16.22
2018-06-23T10:06:18.459Z,16.83
2018-06-23T10:07:17.766Z,16.97
2018-06-23T10:08:18.382Z,17.91
2018-06-23T10:09:17.657Z,18.10
2018-06-23T10:10:17.920Z,18.00
2018-06-23T10:11:17.978Z,16.46
2018-06-23T10:12:18.245Z,16.47
2018-06-23T10:13:18.499Z,16.56
2018-06-23T10:14:17.751Z,17.01
2018-06-23T10:15:18.067Z,17.26
2018-06-23T10:16:18.386Z,17.22
2018-06-23T10:17:17.653Z,17.13
2018-06-23T10:18:17.917Z,16.73
2018-06-23T10:19:18.178Z,15.84
2018-06-23T10:20:18.453Z,15.69
2018-06-23T10:21:18.492Z,15.97
2018-06-23T10:22:17.752Z,16.17
2018-06-23T10:23:18.020Z,16.56
2018-06-23T10:24:18.280Z,16.43
2018-06-23T10:25:18.559Z,16.27
2018-06-23T10:26:17.820Z,16.31
2018-06-23T10:27:18.093Z,16.35
2018-06-23T10:28:18.469Z,16.07
2018-06-23T10:29:17.736Z,16.12
2018-06-23T10:30:18.004Z,16.24
2018-06-23T10:31:18.049Z,16.22
2018-06-23T10:32:18.313Z,16.12
2018-06-23T10:33:18.572Z,16.22
2018-06-23T10:34:17.823Z,16.52
2018-06-23T10:35:18.087Z,17.03
2018-06-23T10:36:18.343Z,17.11
2018-06-23T10:37:18.612Z,17.17
2018-06-23T10:38:17.905Z,16.76
2018-06-23T10:39:18.267Z,16.93
2018-06-23T10:40:18.525Z,17.11
2018-06-23T10:41:18.567Z,16.97
2018-06-23T10:42:17.833Z,16.94
2018-06-23T10:43:18.095Z,17.35
2018-06-23T10:44:18.352Z,17.56
2018-06-23T10:45:18.609Z,18.15
2018-06-23T10:46:17.919Z,17.77
2018-06-23T10:47:18.228Z,17.48
2018-06-23T10:48:18.485Z,18.04
2018-06-23T10:49:17.742Z,17.63
2018-06-23T10:50:18.013Z,17.77
2018-06-23T10:51:18.060Z,17.21
2018-06-23T10:52:18.326Z,17.07
2018-06-23T10:53:18.596Z,16.95
2018-06-23T10:54:17.858Z,16.90
2018-06-23T10:55:18.141Z,17.10
2018-06-23T10:56:18.403Z,17.08
2018-06-23T10:57:17.664Z,17.17
2018-06-23T10:58:17.932Z,17.70
2018-06-23T10:59:18.197Z,17.66
2018-06-23T11:00:18.458Z,17.70
2018-06-23T11:01:18.540Z,17.81
2018-06-23T11:02:17.804Z,17.72
2018-06-23T11:03:18.058Z,16.98
2018-06-23T11:04:18.320Z,17.11
2018-06-23T11:05:18.587Z,17.60
2018-06-23T11:06:17.850Z,17.69
2018-06-23T11:07:18.106Z,16.47
2018-06-23T11:08:18.373Z,16.29
2018-06-23T11:09:18.629Z,16.17
2018-06-23T11:10:17.908Z,16.55
2018-06-23T11:11:17.931Z,16.36
2018-06-23T11:12:18.190Z,16.45
2018-06-23T11:13:18.455Z,16.86
2018-06-23T11:14:17.716Z,17.03
2018-06-23T11:15:17.974Z,16.59
2018-06-23T11:16:18.234Z,16.77
2018-06-23T11:17:18.502Z,16.66
2018-06-23T11:18:17.760Z,16.12
2018-06-23T11:19:18.353Z,15.97
2018-06-23T11:20:18.616Z,16.14
2018-06-23T11:21:17.656Z,16.38
2018-06-23T11:22:17.920Z,16.05
2018-06-23T11:23:18.185Z,15.82
2018-06-23T11:24:18.460Z,15.87
2018-06-23T11:25:17.938Z,16.17
2018-06-23T11:26:18.198Z,16.11
2018-06-23T11:27:18.461Z,15.92
2018-06-23T11:28:17.734Z,15.71
2018-06-23T11:29:18.002Z,16.04
2018-06-23T11:30:18.281Z,15.94
2018-06-23T11:31:18.327Z,16.02
2018-06-23T11:32:18.628Z,15.95
2018-06-23T11:33:18.246Z,16.01
2018-06-23T11:34:18.791Z,16.08
2018-06-23T11:35:18.045Z,16.08
2018-06-23T11:36:18.312Z,16.29
2018-06-23T11:37:18.571Z,16.21
2018-06-23T11:38:17.826Z,16.47
2018-06-23T11:39:18.086Z,16.39
2018-06-23T11:40:18.358Z,16.29
2018-06-23T11:41:18.428Z,16.31
2018-06-23T11:42:17.789Z,15.74
2018-06-23T11:43:18.057Z,15.81
2018-06-23T11:44:18.318Z,16.15
2018-06-23T11:45:18.568Z,16.38
2018-06-23T11:46:17.828Z,16.76
2018-06-23T11:47:18.097Z,16.36
2018-06-23T11:48:18.364Z,16.71
2018-06-23T11:49:18.627Z,16.56
2018-06-23T11:50:17.893Z,16.76
2018-06-23T11:51:17.934Z,16.94
2018-06-23T11:52:18.308Z,16.90
2018-06-23T11:53:17.809Z,17.22
2018-06-23T11:54:18.076Z,16.95
2018-06-23T11:55:18.340Z,16.95
2018-06-23T11:56:18.615Z,16.84
2018-06-23T11:57:17.889Z,16.83
2018-06-23T11:58:18.147Z,17.13
2018-06-23T11:59:18.400Z,16.87
2018-06-23T12:00:17.665Z,16.36
2018-06-23T12:01:17.909Z,16.55
2018-06-23T12:02:18.177Z,16.98
2018-06-23T12:03:18.626Z,17.01
2018-06-23T12:04:17.972Z,16.33
2018-06-23T12:05:18.233Z,16.53
2018-06-23T12:06:18.497Z,16.49
2018-06-23T12:07:17.752Z,16.43
2018-06-23T12:08:18.015Z,16.59
2018-06-23T12:09:18.286Z,16.12
2018-06-23T12:10:18.558Z,16.35
2018-06-23T12:11:18.604Z,16.43
2018-06-23T12:12:17.862Z,16.71
2018-06-23T12:13:18.122Z,16.31
2018-06-23T12:14:18.385Z,16.43
2018-06-23T12:15:17.660Z,16.84
2018-06-23T12:16:17.920Z,17.08
2018-06-23T12:17:18.185Z,16.98
2018-06-23T12:18:18.452Z,16.74
2018-06-23T12:19:17.716Z,17.22
2018-06-23T12:20:17.982Z,16.88
2018-06-23T12:21:18.027Z,17.14
2018-06-23T12:22:18.287Z,17.31
2018-06-23T12:23:18.541Z,17.32
2018-06-23T12:24:17.806Z,17.17
2018-06-23T12:25:18.070Z,17.08
2018-06-23T12:26:18.379Z,17.59
2018-06-23T12:27:17.647Z,17.83
2018-06-23T12:28:17.909Z,18.10
2018-06-23T12:29:18.183Z,17.53
2018-06-23T12:30:18.484Z,17.68
2018-06-23T12:31:18.500Z,17.26
2018-06-23T12:32:17.759Z,17.43
2018-06-23T12:33:18.019Z,17.63
2018-06-23T12:34:18.336Z,17.22
2018-06-23T12:35:17.631Z,17.39
2018-06-23T12:36:17.891Z,17.57
2018-06-23T12:37:18.161Z,17.32
2018-06-23T12:38:18.431Z,17.29
2018-06-23T12:39:17.697Z,16.70
2018-06-23T12:40:17.966Z,16.56
2018-06-23T12:41:18.009Z,17.05
2018-06-23T12:42:18.271Z,17.04
2018-06-23T12:43:18.522Z,17.38
2018-06-23T12:44:17.785Z,17.10
2018-06-23T12:45:18.056Z,16.88
2018-06-23T12:46:18.321Z,16.66
2018-06-23T12:47:18.581Z,17.11
2018-06-23T12:48:17.839Z,17.07
2018-06-23T12:49:18.097Z,16.80
2018-06-23T12:50:18.360Z,16.59
2018-06-23T12:51:18.398Z,16.60
2018-06-23T12:52:17.659Z,16.70
2018-06-23T12:53:17.916Z,16.68
2018-06-23T12:54:18.176Z,16.88
2018-06-23T12:55:18.438Z,16.94
2018-06-23T12:56:17.702Z,16.68
2018-06-23T12:57:17.958Z,16.73